Time;durP1;ratioP1;P1;durP2;ratioP2;P2;SDS_P1;SDS_P2;PMS_P1;PMS_P2;Temp;Humidity;BMP_temperature;BMP_pressure;BME280_temperature;BME280_humidity;BME280_pressure;Samples;Min_cycle;Max_cycle;Signal;HPM_P1;HPM_P2
2022/03/23 00:01:09;;;;;;;;;;;8.30;98.50;;;;;;6244772;23;19904;-81
2022/03/23 00:03:35;;;;;;;;;;;8.30;97.40;;;;;;6244566;23;19911;-82
2022/03/23 00:06:01;;;;;;;;;;;8.30;97.40;;;;;;6244426;23;19904;-82
2022/03/23 00:08:27;;;;;;;;;;;8.40;98.60;;;;;;6245579;23;19907;-82
2022/03/23 00:10:53;;;;;;;;;;;8.50;97.20;;;;;;6244607;23;19910;-81
2022/03/23 00:13:19;;;;;;;;;;;8.60;98.50;;;;;;6244279;23;20313;-82
2022/03/23 00:15:45;;;;;;;;;;;8.60;97.20;;;;;;6217417;23;19914;-81
2022/03/23 00:18:12;;;;;;;;;;;8.50;96.60;;;;;;6244339;23;19910;-82
2022/03/23 00:20:38;;;;;;;;;;;8.40;97.10;;;;;;6217219;23;20205;-81
2022/03/23 00:23:05;;;;;;;;;;;8.30;97.10;;;;;;6217236;23;19911;-81
2022/03/23 00:25:31;;;;;;;;;;;8.30;97.10;;;;;;6244461;23;19904;-81
2022/03/23 00:27:56;;;;;;;;;;;8.30;97.10;;;;;;6244040;23;19998;-81
2022/03/23 00:30:23;;;;;;;;;;;8.20;97.10;;;;;;6244240;23;19955;-82
2022/03/23 00:32:49;;;;;;;;;;;8.20;97.30;;;;;;6217033;23;19912;-81
2022/03/23 00:35:15;;;;;;;;;;;8.20;97.20;;;;;;6244289;23;20177;-81
2022/03/23 00:37:43;;;;;;;;;;;8.20;97.40;;;;;;6244355;23;20008;-82
2022/03/23 00:40:10;;;;;;;;;;;8.10;97.50;;;;;;6244110;23;19962;-81
2022/03/23 00:42:36;;;;;;;;;;;8.10;97.80;;;;;;6244331;23;20375;-81
2022/03/23 00:45:04;;;;;;;;;;;8.20;97.40;;;;;;6244156;23;19941;-81
2022/03/23 00:47:30;;;;;;;;;;;8.20;98.10;;;;;;6244235;23;20258;-81
2022/03/23 00:49:56;;;;;;;;;;;8.30;97.80;;;;;;6243943;23;19941;-81
2022/03/23 00:52:21;;;;;;;;;;;8.40;96.90;;;;;;6243984;23;20225;-82
2022/03/23 00:54:47;;;;;;;;;;;8.30;97.10;;;;;;6244062;23;19923;-81
2022/03/23 00:57:13;;;;;;;;;;;8.20;97.20;;;;;;6243868;23;19915;-82
2022/03/23 00:59:39;;;;;;;;;;;8.10;97.40;;;;;;6243507;23;20217;-81
2022/03/23 01:02:05;;;;;;;;;;;8.10;97.50;;;;;;6244360;23;19943;-82
2022/03/23 01:04:31;;;;;;;;;;;8.00;97.40;;;;;;6216759;23;19911;-82
2022/03/23 01:06:58;;;;;;;;;;;8.00;97.40;;;;;;6216415;23;19965;-81
2022/03/23 01:09:24;;;;;;;;;;;7.90;97.50;;;;;;6216959;23;20312;-82
2022/03/23 01:11:50;;;;;;;;;;;8.00;97.20;;;;;;6243603;23;19903;-81
2022/03/23 01:14:16;;;;;;;;;;;8.10;97.20;;;;;;6243826;23;19946;-81
2022/03/23 01:16:42;;;;;;;;;;;8.10;96.80;;;;;;6243741;23;19903;-81
2022/03/23 01:19:09;;;;;;;;;;;8.10;97.20;;;;;;6243828;23;20029;-82
2022/03/23 01:21:35;;;;;;;;;;;8.10;96.90;;;;;;6244275;23;20197;-82
2022/03/23 01:24:01;;;;;;;;;;;8.10;96.80;;;;;;6244001;23;19910;-82
2022/03/23 01:26:29;;;;;;;;;;;8.10;96.80;;;;;;6216627;23;19908;-81
2022/03/23 01:28:55;;;;;;;;;;;8.20;96.90;;;;;;6244022;23;19908;-81
2022/03/23 01:31:21;;;;;;;;;;;8.10;97.10;;;;;;6243520;23;19904;-81
2022/03/23 01:33:46;;;;;;;;;;;8.00;96.70;;;;;;6243959;23;19912;-81
2022/03/23 01:36:12;;;;;;;;;;;8.00;96.90;;;;;;6243844;23;19908;-81
2022/03/23 01:38:38;;;;;;;;;;;7.90;97.00;;;;;;6244057;23;19927;-82
2022/03/23 01:41:04;;;;;;;;;;;7.90;96.80;;;;;;6243770;23;19954;-82
2022/03/23 01:43:33;;;;;;;;;;;7.90;96.80;;;;;;6243986;23;20221;-81
2022/03/23 01:46:00;;;;;;;;;;;7.90;97.00;;;;;;6244326;23;19974;-81
2022/03/23 01:48:25;;;;;;;;;;;7.90;97.00;;;;;;6216823;23;19917;-82
2022/03/23 01:50:51;;;;;;;;;;;7.80;97.10;;;;;;6245042;23;19939;-82
2022/03/23 01:53:17;;;;;;;;;;;7.80;97.40;;;;;;6244710;23;19912;-82
2022/03/23 01:55:44;;;;;;;;;;;7.80;97.00;;;;;;6217977;23;19919;-82
2022/03/23 01:58:10;;;;;;;;;;;7.90;96.80;;;;;;6244854;23;19943;-82
2022/03/23 02:00:36;;;;;;;;;;;7.90;97.00;;;;;;6244523;23;20440;-83
2022/03/23 02:03:01;;;;;;;;;;;7.90;96.80;;;;;;6245486;23;19903;-81
2022/03/23 02:05:27;;;;;;;;;;;7.90;96.80;;;;;;6245140;23;19983;-82
2022/03/23 02:07:55;;;;;;;;;;;7.90;96.80;;;;;;6244984;23;20280;-83
2022/03/23 02:10:21;;;;;;;;;;;7.80;97.10;;;;;;6244778;23;19965;-83
2022/03/23 02:12:47;;;;;;;;;;;7.80;97.00;;;;;;6247534;23;19967;-82
2022/03/23 02:15:15;;;;;;;;;;;7.80;96.90;;;;;;6247609;23;20289;-82
2022/03/23 02:17:42;;;;;;;;;;;7.70;97.00;;;;;;6247789;23;19919;-82
2022/03/23 02:20:08;;;;;;;;;;;7.70;97.00;;;;;;6246776;23;19922;-82
2022/03/23 02:22:34;;;;;;;;;;;7.70;97.10;;;;;;6247404;23;19927;-82
2022/03/23 02:25:00;;;;;;;;;;;7.70;97.00;;;;;;6247258;23;20309;-82
2022/03/23 02:27:26;;;;;;;;;;;7.60;97.00;;;;;;6246527;23;19993;-82
2022/03/23 02:29:55;;;;;;;;;;;7.70;96.90;;;;;;6246152;23;19914;-82
2022/03/23 02:32:21;;;;;;;;;;;7.70;96.80;;;;;;6218694;23;20293;-82
2022/03/23 02:34:47;;;;;;;;;;;7.70;96.80;;;;;;6246523;23;19919;-82
2022/03/23 02:37:13;;;;;;;;;;;7.70;96.90;;;;;;6246066;23;20247;-82
2022/03/23 02:39:39;;;;;;;;;;;7.60;97.00;;;;;;6218543;23;19999;-81
2022/03/23 02:42:04;;;;;;;;;;;7.60;97.00;;;;;;6245998;23;19926;-81
2022/03/23 02:44:32;;;;;;;;;;;7.60;97.10;;;;;;6246116;23;19999;-82
2022/03/23 02:46:57;;;;;;;;;;;7.50;97.20;;;;;;6245817;23;19903;-81
2022/03/23 02:49:23;;;;;;;;;;;7.50;97.30;;;;;;6245732;23;19903;-82
2022/03/23 02:51:49;;;;;;;;;;;7.50;97.50;;;;;;6246310;23;19904;-82
2022/03/23 03:02:35;;;;;;;;;;;7.50;97.30;;;;;;6245816;23;19998;-82
2022/03/23 03:05:01;;;;;;;;;;;7.50;97.30;;;;;;6218251;23;19911;-83
2022/03/23 03:07:27;;;;;;;;;;;7.40;97.30;;;;;;6245334;23;19939;-82
2022/03/23 03:09:53;;;;;;;;;;;7.40;97.40;;;;;;6245551;23;19904;-82
2022/03/23 03:12:19;;;;;;;;;;;7.30;97.50;;;;;;6245298;23;20338;-82
2022/03/23 03:14:45;;;;;;;;;;;7.30;97.70;;;;;;6245926;23;19911;-83
2022/03/23 03:17:11;;;;;;;;;;;7.20;97.70;;;;;;6245933;23;20197;-82
2022/03/23 03:19:36;;;;;;;;;;;7.30;97.50;;;;;;6246085;23;19907;-82
2022/03/23 03:22:03;;;;;;;;;;;7.40;97.40;;;;;;6245558;23;19911;-82
2022/03/23 03:24:29;;;;;;;;;;;7.40;97.30;;;;;;6245070;23;19982;-81
2022/03/23 03:26:55;;;;;;;;;;;7.40;97.10;;;;;;6244841;23;19990;-81
2022/03/23 03:29:22;;;;;;;;;;;7.40;97.20;;;;;;6217843;23;20190;-82
2022/03/23 03:31:48;;;;;;;;;;;7.40;97.30;;;;;;6217504;23;19997;-82
2022/03/23 03:34:14;;;;;;;;;;;7.40;97.50;;;;;;6245062;23;19907;-83
2022/03/23 03:36:41;;;;;;;;;;;7.40;97.40;;;;;;6244633;23;19927;-82
2022/03/23 03:39:07;;;;;;;;;;;7.40;97.30;;;;;;6217175;23;19930;-82
2022/03/23 03:41:33;;;;;;;;;;;7.40;97.30;;;;;;6244345;23;19903;-82
2022/03/23 03:43:58;;;;;;;;;;;7.50;97.10;;;;;;6244956;23;20197;-82
2022/03/23 03:46:24;;;;;;;;;;;7.50;97.10;;;;;;6244845;23;19903;-82
2022/03/23 03:48:50;;;;;;;;;;;7.40;97.10;;;;;;6217485;23;19904;-82
2022/03/23 03:51:16;;;;;;;;;;;7.40;97.50;;;;;;6244837;23;19919;-82
2022/03/23 03:53:42;;;;;;;;;;;7.40;97.10;;;;;;6243238;23;19912;-82
2022/03/23 03:56:08;;;;;;;;;;;7.40;97.10;;;;;;6244782;23;20002;-82
2022/03/23 03:58:34;;;;;;;;;;;7.40;97.20;;;;;;6244623;23;19934;-82
2022/03/23 04:01:00;;;;;;;;;;;7.40;97.30;;;;;;6245268;23;19904;-82
2022/03/23 04:03:26;;;;;;;;;;;7.30;97.40;;;;;;6245189;23;19930;-82
2022/03/23 04:05:52;;;;;;;;;;;7.30;97.40;;;;;;6245991;23;19926;-83
2022/03/23 04:08:18;;;;;;;;;;;7.20;97.60;;;;;;6246688;23;20304;-82
2022/03/23 04:10:47;;;;;;;;;;;7.30;97.50;;;;;;6244912;23;19978;-82
2022/03/23 04:13:12;;;;;;;;;;;7.30;97.70;;;;;;6244565;23;19916;-78
2022/03/23 04:15:38;;;;;;;;;;;7.40;97.70;;;;;;6244989;23;20293;-80
2022/03/23 04:18:05;;;;;;;;;;;7.40;97.90;;;;;;6245870;23;20324;-82
2022/03/23 04:20:31;;;;;;;;;;;7.30;97.50;;;;;;6246249;23;19910;-82
2022/03/23 04:22:57;;;;;;;;;;;7.40;99.30;;;;;;6247398;23;19903;-79
2022/03/23 04:25:22;;;;;;;;;;;7.40;97.50;;;;;;6246693;23;19904;-82
2022/03/23 04:27:51;;;;;;;;;;;7.40;97.90;;;;;;6245931;23;20213;-78
2022/03/23 04:30:18;;;;;;;;;;;7.40;97.30;;;;;;6245798;23;19914;-78
2022/03/23 04:32:45;;;;;;;;;;;7.40;97.10;;;;;;6246421;23;20327;-78
2022/03/23 04:35:12;;;;;;;;;;;7.40;97.00;;;;;;6247603;23;19911;-78
2022/03/23 04:37:38;;;;;;;;;;;7.40;96.80;;;;;;6249214;23;20229;-82
2022/03/23 04:40:06;;;;;;;;;;;7.40;96.80;;;;;;6220607;23;19908;-82
2022/03/23 04:42:32;;;;;;;;;;;7.40;96.60;;;;;;6246280;23;19910;-82
2022/03/23 04:44:58;;;;;;;;;;;7.50;96.60;;;;;;6246575;23;19934;-82
2022/03/23 04:47:24;;;;;;;;;;;7.60;96.40;;;;;;6219094;23;19904;-82
2022/03/23 04:49:50;;;;;;;;;;;7.60;96.30;;;;;;6246094;23;19903;-82
2022/03/23 04:52:16;;;;;;;;;;;7.50;96.40;;;;;;6246310;23;19999;-82
2022/03/23 04:54:43;;;;;;;;;;;7.50;96.60;;;;;;6219247;23;20009;-82
2022/03/23 04:57:09;;;;;;;;;;;7.40;96.80;;;;;;6246806;23;19926;-80
2022/03/23 04:59:35;;;;;;;;;;;7.30;97.10;;;;;;6245817;23;20336;-84
2022/03/23 05:02:00;;;;;;;;;;;7.30;97.30;;;;;;6245686;23;19903;-85
2022/03/23 05:04:26;;;;;;;;;;;7.30;97.30;;;;;;6218626;23;20335;-83
2022/03/23 05:06:52;;;;;;;;;;;7.30;97.40;;;;;;6246430;23;20334;-85
2022/03/23 05:09:18;;;;;;;;;;;7.20;98.00;;;;;;6245736;23;20041;-87
2022/03/23 05:11:44;;;;;;;;;;;7.10;98.20;;;;;;6245492;23;19911;-87
2022/03/23 05:14:10;;;;;;;;;;;7.10;98.00;;;;;;6245405;23;19926;-85
2022/03/23 05:16:35;;;;;;;;;;;7.10;97.90;;;;;;6246253;23;19981;-81
2022/03/23 05:19:01;;;;;;;;;;;7.10;98.00;;;;;;6246293;23;19904;-85
2022/03/23 05:21:27;;;;;;;;;;;7.10;98.00;;;;;;6219668;23;19982;-86
2022/03/23 05:23:53;;;;;;;;;;;7.00;98.00;;;;;;6247079;23;19904;-84
2022/03/23 05:26:18;;;;;;;;;;;6.90;98.10;;;;;;6246526;23;19983;-78
2022/03/23 05:28:44;;;;;;;;;;;6.90;98.10;;;;;;6219540;23;19904;-84
2022/03/23 05:31:10;;;;;;;;;;;7.00;97.90;;;;;;6246464;23;19962;-85
2022/03/23 05:33:36;;;;;;;;;;;7.00;98.00;;;;;;6246771;23;20431;-84
2022/03/23 05:36:02;;;;;;;;;;;7.00;97.80;;;;;;6246262;23;19950;-84
2022/03/23 05:38:28;;;;;;;;;;;7.00;97.90;;;;;;6246347;23;19939;-84
2022/03/23 05:40:54;;;;;;;;;;;7.10;97.90;;;;;;6246231;23;19926;-85
2022/03/23 05:43:20;;;;;;;;;;;7.10;97.80;;;;;;6219465;23;19982;-85
2022/03/23 05:45:45;;;;;;;;;;;7.20;97.60;;;;;;6245997;23;19935;-84
2022/03/23 05:48:11;;;;;;;;;;;7.30;97.50;;;;;;6245293;23;19915;-84
2022/03/23 05:50:37;;;;;;;;;;;7.30;97.60;;;;;;6246149;23;19904;-85
2022/03/23 05:53:03;;;;;;;;;;;7.50;97.50;;;;;;6217980;23;20344;-83
2022/03/23 05:55:29;;;;;;;;;;;7.80;97.40;;;;;;6218995;23;19911;-83
2022/03/23 05:57:55;;;;;;;;;;;8.90;96.60;;;;;;6245398;23;19911;-85
2022/03/23 06:00:21;;;;;;;;;;;10.20;94.90;;;;;;6244854;23;19958;-85
2022/03/23 06:02:47;;;;;;;;;;;11.50;92.50;;;;;;6245316;23;19908;-85
2022/03/23 06:05:13;;;;;;;;;;;13.00;90.60;;;;;;6219563;23;19979;-86
2022/03/23 06:07:42;;;;;;;;;;;13.60;88.00;;;;;;6221491;23;19973;-86
2022/03/23 06:10:08;;;;;;;;;;;14.50;86.40;;;;;;6219155;23;19903;-85
2022/03/23 06:12:34;;;;;;;;;;;15.20;86.00;;;;;;6245664;23;20001;-86
2022/03/23 06:15:00;;;;;;;;;;;16.00;82.00;;;;;;6219254;23;19910;-85
2022/03/23 06:17:26;;;;;;;;;;;15.70;82.70;;;;;;6220683;23;19942;-85
2022/03/23 06:19:51;;;;;;;;;;;16.30;81.30;;;;;;6220193;23;19910;-86
2022/03/23 06:22:18;;;;;;;;;;;17.20;79.00;;;;;;6246876;23;19903;-85
2022/03/23 06:24:44;;;;;;;;;;;16.90;77.30;;;;;;6246671;23;19911;-86
2022/03/23 06:27:10;;;;;;;;;;;16.30;78.60;;;;;;6246415;23;20275;-85
2022/03/23 06:29:35;;;;;;;;;;;16.20;79.40;;;;;;6245869;23;19903;-86
2022/03/23 06:32:01;;;;;;;;;;;16.20;78.70;;;;;;6217367;23;19910;-81
2022/03/23 06:34:27;;;;;;;;;;;16.00;79.00;;;;;;6245056;23;19915;-86
2022/03/23 06:36:53;;;;;;;;;;;16.70;78.00;;;;;;6245145;23;20309;-86
2022/03/23 06:39:19;;;;;;;;;;;17.20;76.60;;;;;;6245842;23;19908;-86
2022/03/23 06:41:44;;;;;;;;;;;17.60;75.80;;;;;;6246721;23;20312;-86
2022/03/23 06:44:11;;;;;;;;;;;18.20;75.40;;;;;;6246137;23;19927;-85
2022/03/23 06:46:37;;;;;;;;;;;18.20;74.50;;;;;;6246890;23;19903;-85
2022/03/23 06:49:03;;;;;;;;;;;18.80;74.00;;;;;;6246778;23;19935;-86
2022/03/23 06:51:29;;;;;;;;;;;19.90;71.70;;;;;;6219140;23;19914;-86
2022/03/23 06:53:57;;;;;;;;;;;20.00;69.90;;;;;;6247229;23;19965;-85
2022/03/23 06:56:42;;;;;;;;;;;19.40;70.30;;;;;;6245751;23;20184;-87
2022/03/23 06:59:38;;;;;;;;;;;19.60;70.60;;;;;;6247438;23;20312;-87
2022/03/23 07:02:05;;;;;;;;;;;19.40;70.30;;;;;;6220449;23;20052;-85
2022/03/23 07:04:31;;;;;;;;;;;19.60;69.80;;;;;;6246958;23;19904;-85
2022/03/23 07:06:57;;;;;;;;;;;20.70;68.50;;;;;;6247661;23;20324;-84
2022/03/23 07:09:31;;;;;;;;;;;20.70;66.70;;;;;;6245892;23;20490;-85
2022/03/23 07:11:59;;;;;;;;;;;21.20;66.90;;;;;;6246205;23;19987;-83
2022/03/23 07:14:27;;;;;;;;;;;22.10;65.80;;;;;;6220572;23;20089;-86
2022/03/23 07:16:53;;;;;;;;;;;21.60;64.90;;;;;;6246450;23;19930;-83
2022/03/23 07:19:18;;;;;;;;;;;22.20;63.40;;;;;;6246914;23;19904;-84
2022/03/23 07:21:44;;;;;;;;;;;21.10;63.30;;;;;;6246940;23;19907;-83
2022/03/23 07:24:13;;;;;;;;;;;21.30;64.90;;;;;;6246319;23;19919;-82
2022/03/23 07:26:39;;;;;;;;;;;21.30;64.10;;;;;;6220070;23;19934;-85
2022/03/23 07:29:05;;;;;;;;;;;21.50;63.20;;;;;;6247013;23;19958;-82
2022/03/23 07:31:31;;;;;;;;;;;20.90;64.00;;;;;;6246974;23;19904;-79
2022/03/23 07:33:57;;;;;;;;;;;21.00;63.30;;;;;;6246439;23;19918;-78
2022/03/23 07:36:24;;;;;;;;;;;20.20;65.10;;;;;;6246595;23;19927;-76
2022/03/23 07:38:50;;;;;;;;;;;20.00;65.70;;;;;;6219598;23;19986;-75
2022/03/23 07:41:16;;;;;;;;;;;19.60;65.90;;;;;;6246511;23;19910;-76
2022/03/23 07:43:42;;;;;;;;;;;19.30;67.00;;;;;;6246568;23;20224;-73
2022/03/23 07:46:08;;;;;;;;;;;18.60;67.90;;;;;;6246376;23;19954;-75
2022/03/23 07:48:34;;;;;;;;;;;17.90;69.70;;;;;;6246640;23;19982;-76
2022/03/23 07:51:00;;;;;;;;;;;16.70;72.50;;;;;;6219115;23;19935;-74
2022/03/23 07:53:26;;;;;;;;;;;15.90;75.00;;;;;;6219331;23;19991;-73
2022/03/23 07:55:52;;;;;;;;;;;15.90;75.30;;;;;;6246250;23;20317;-75
2022/03/23 07:58:17;;;;;;;;;;;15.80;75.00;;;;;;6246266;23;19950;-75
2022/03/23 08:00:45;;;;;;;;;;;16.00;74.60;;;;;;6246254;23;19904;-73
2022/03/23 08:03:11;;;;;;;;;;;15.70;75.80;;;;;;6246170;23;19903;-74
2022/03/23 08:05:37;;;;;;;;;;;16.10;76.40;;;;;;6246070;23;19904;-74
2022/03/23 08:08:03;;;;;;;;;;;16.70;76.10;;;;;;6245689;23;19908;-73
2022/03/23 08:10:29;;;;;;;;;;;16.90;77.60;;;;;;6246472;23;20220;-75
2022/03/23 08:12:55;;;;;;;;;;;17.10;73.00;;;;;;6245745;23;19912;-75
2022/03/23 08:15:30;;;;;;;;;;;16.50;73.30;;;;;;6245984;23;19979;-75
2022/03/23 08:17:56;;;;;;;;;;;16.30;73.50;;;;;;6246542;23;19957;-73
2022/03/23 08:20:37;;;;;;;;;;;16.40;75.60;;;;;;6246019;23;19911;-75
2022/03/23 08:23:04;;;;;;;;;;;16.60;73.70;;;;;;6246653;23;19926;-73
2022/03/23 08:25:30;;;;;;;;;;;16.80;73.50;;;;;;6245715;23;19916;-74
2022/03/23 08:27:57;;;;;;;;;;;16.80;74.50;;;;;;6246580;23;19916;-76
2022/03/23 08:30:24;;;;;;;;;;;17.20;74.60;;;;;;6246179;23;19926;-74
2022/03/23 08:32:50;;;;;;;;;;;17.50;72.80;;;;;;6246138;23;19919;-74
2022/03/23 08:35:15;;;;;;;;;;;17.80;71.80;;;;;;6245512;23;19995;-75
2022/03/23 08:37:42;;;;;;;;;;;18.10;71.70;;;;;;6246246;23;20020;-73
2022/03/23 08:40:08;;;;;;;;;;;18.20;71.40;;;;;;6246485;23;19992;-75
2022/03/23 08:42:34;;;;;;;;;;;18.10;69.80;;;;;;6246546;23;19910;-73
2022/03/23 08:45:00;;;;;;;;;;;17.70;71.50;;;;;;6245613;23;19962;-74
2022/03/23 08:47:27;;;;;;;;;;;17.70;70.60;;;;;;6245231;23;19907;-74
2022/03/23 08:49:53;;;;;;;;;;;17.70;71.10;;;;;;6244659;23;19904;-73
2022/03/23 08:52:19;;;;;;;;;;;17.60;70.90;;;;;;6245350;23;19939;-74
2022/03/23 08:54:45;;;;;;;;;;;17.60;70.60;;;;;;6244994;23;19911;-74
2022/03/23 08:57:11;;;;;;;;;;;17.30;70.60;;;;;;6244762;23;19904;-74
2022/03/23 08:59:37;;;;;;;;;;;16.90;70.40;;;;;;6244864;23;19985;-76
2022/03/23 09:02:02;;;;;;;;;;;16.70;70.50;;;;;;6244873;23;20005;-75
2022/03/23 09:04:30;;;;;;;;;;;16.80;70.50;;;;;;6245049;23;19903;-74
2022/03/23 09:06:55;;;;;;;;;;;16.60;71.70;;;;;;6217755;23;19904;-75
2022/03/23 09:09:21;;;;;;;;;;;16.60;71.30;;;;;;6245092;23;19926;-76
2022/03/23 09:11:47;;;;;;;;;;;16.50;71.80;;;;;;6218392;23;20225;-75
2022/03/23 09:14:13;;;;;;;;;;;16.50;71.00;;;;;;6245352;23;19965;-76
2022/03/23 09:16:39;;;;;;;;;;;16.90;71.90;;;;;;6244923;23;19904;-74
2022/03/23 09:19:05;;;;;;;;;;;16.30;72.60;;;;;;6244891;23;19930;-75
2022/03/23 09:21:32;;;;;;;;;;;16.10;73.30;;;;;;6243258;23;19904;-75
2022/03/23 09:23:57;;;;;;;;;;;15.70;73.90;;;;;;6244472;23;19911;-75
2022/03/23 09:26:24;;;;;;;;;;;15.80;74.40;;;;;;6245923;23;19908;-76
2022/03/23 09:28:51;;;;;;;;;;;15.80;73.60;;;;;;6245723;23;19943;-75
2022/03/23 09:31:17;;;;;;;;;;;16.00;74.80;;;;;;6246295;23;19965;-75
2022/03/23 09:33:48;;;;;;;;;;;16.10;74.50;;;;;;6245402;23;20331;-74
2022/03/23 09:37:47;;;;;;;;;;;16.20;74.00;;;;;;6245318;23;19904;-75
2022/03/23 09:39:05;;;;;;;;;;;16.30;74.10;;;;;;6244659;23;20213;-75
2022/03/23 09:41:32;;;;;;;;;;;16.40;74.90;;;;;;6245339;23;19904;-75
2022/03/23 09:43:58;;;;;;;;;;;16.60;73.70;;;;;;6245285;23;19914;-74
2022/03/23 09:46:24;;;;;;;;;;;16.40;74.70;;;;;;6245629;23;19904;-76
2022/03/23 09:48:50;;;;;;;;;;;16.40;75.20;;;;;;6244836;23;20384;-76
2022/03/23 09:51:17;;;;;;;;;;;16.60;75.60;;;;;;6244311;23;19930;-75
2022/03/23 09:53:43;;;;;;;;;;;16.60;74.60;;;;;;6244563;23;19943;-73
2022/03/23 09:56:10;;;;;;;;;;;16.80;74.20;;;;;;6244393;23;19904;-70
2022/03/23 09:58:36;;;;;;;;;;;17.00;73.00;;;;;;6218312;23;19947;-74
2022/03/23 10:01:03;;;;;;;;;;;17.10;71.70;;;;;;6244659;23;20331;-76
2022/03/23 10:03:38;;;;;;;;;;;17.00;71.40;;;;;;6245077;23;19999;-74
2022/03/23 10:06:23;;;;;;;;;;;17.00;72.10;;;;;;6244628;23;19904;-74
2022/03/23 10:09:07;;;;;;;;;;;17.20;71.30;;;;;;6244700;23;20317;-75
2022/03/23 10:11:52;;;;;;;;;;;17.00;71.80;;;;;;6217872;23;20220;-73
2022/03/23 10:14:36;;;;;;;;;;;16.90;72.70;;;;;;6245014;23;19977;-75
2022/03/23 10:17:20;;;;;;;;;;;16.30;73.90;;;;;;6244741;23;20010;-75
2022/03/23 10:19:47;;;;;;;;;;;16.30;74.30;;;;;;6245049;23;19911;-73
2022/03/23 10:22:14;;;;;;;;;;;16.30;75.40;;;;;;6245005;23;19903;-73
2022/03/23 10:24:40;;;;;;;;;;;16.40;75.10;;;;;;6244454;23;19966;-74
2022/03/23 10:27:07;;;;;;;;;;;16.70;75.40;;;;;;6245564;23;19903;-75
2022/03/23 10:29:38;;;;;;;;;;;16.90;74.10;;;;;;6244970;23;19930;-74
2022/03/23 10:32:06;;;;;;;;;;;17.10;72.60;;;;;;6245571;23;19910;-75
2022/03/23 10:34:38;;;;;;;;;;;17.30;72.70;;;;;;6246685;23;20340;-74
2022/03/23 10:37:04;;;;;;;;;;;17.40;71.60;;;;;;6246659;23;19931;-75
2022/03/23 10:39:30;;;;;;;;;;;17.50;71.70;;;;;;6219717;23;19911;-75
2022/03/23 10:41:58;;;;;;;;;;;17.60;70.60;;;;;;6247282;23;20304;-75
2022/03/23 10:44:23;;;;;;;;;;;17.60;70.50;;;;;;6246988;23;19911;-74
2022/03/23 10:46:53;;;;;;;;;;;17.80;70.50;;;;;;6246965;23;19904;-74
2022/03/23 10:49:29;;;;;;;;;;;17.70;70.30;;;;;;6246385;23;20315;-73
2022/03/23 10:51:56;;;;;;;;;;;17.80;70.60;;;;;;6247035;23;19911;-74
2022/03/23 10:54:26;;;;;;;;;;;17.90;69.90;;;;;;6246619;23;19958;-74
2022/03/23 10:56:52;;;;;;;;;;;17.60;70.00;;;;;;6246554;23;19935;-75
2022/03/23 10:59:22;;;;;;;;;;;17.80;76.60;;;;;;6246421;23;19914;-74
2022/03/23 11:01:55;;;;;;;;;;;17.80;72.90;;;;;;6246502;23;19954;-75
2022/03/23 11:04:21;;;;;;;;;;;18.10;72.50;;;;;;6246111;23;19904;-75
2022/03/23 11:06:47;;;;;;;;;;;18.30;70.30;;;;;;6246823;23;19903;-75
2022/03/23 11:17:45;;;;;;;;;;;18.80;73.30;;;;;;6246183;23;19915;-75
2022/03/23 11:20:11;;;;;;;;;;;18.60;71.00;;;;;;6245590;23;19904;-75
2022/03/23 11:22:37;;;;;;;;;;;18.70;70.60;;;;;;6245786;23;19904;-75
2022/03/23 11:25:03;;;;;;;;;;;18.80;70.30;;;;;;6245733;23;19926;-74
2022/03/23 11:27:30;;;;;;;;;;;18.70;71.00;;;;;;6245844;23;19904;-74
2022/03/23 11:29:57;;;;;;;;;;;18.80;71.30;;;;;;6245595;23;19911;-75
2022/03/23 11:32:32;;;;;;;;;;;18.90;70.00;;;;;;6245159;23;19918;-74
2022/03/23 11:35:00;;;;;;;;;;;18.80;72.50;;;;;;6246024;23;20305;-75
2022/03/23 11:37:28;;;;;;;;;;;18.90;69.70;;;;;;6245518;23;19904;-74
2022/03/23 11:39:55;;;;;;;;;;;19.00;75.90;;;;;;6245824;23;20280;-75
2022/03/23 11:42:22;;;;;;;;;;;18.90;69.30;;;;;;6245555;23;19903;-74
2022/03/23 11:44:48;;;;;;;;;;;18.90;68.80;;;;;;6245129;23;19919;-76
2022/03/23 11:47:34;;;;;;;;;;;19.10;74.30;;;;;;6245291;23;19975;-74
2022/03/23 11:50:16;;;;;;;;;;;19.20;70.20;;;;;;6245031;23;19938;-74
2022/03/23 11:52:59;;;;;;;;;;;19.30;69.20;;;;;;6218550;23;19916;-74
2022/03/23 11:55:38;;;;;;;;;;;19.30;65.50;;;;;;6245809;23;19903;-76
2022/03/23 11:58:17;;;;;;;;;;;18.90;66.40;;;;;;6217758;23;19904;-74
2022/03/23 12:00:53;;;;;;;;;;;18.90;66.10;;;;;;6244234;23;19971;-73
2022/03/23 12:03:37;;;;;;;;;;;19.20;65.50;;;;;;6244000;23;20001;-74
2022/03/23 12:06:10;;;;;;;;;;;19.00;65.20;;;;;;6244576;23;20255;-73
2022/03/23 12:08:48;;;;;;;;;;;18.90;66.00;;;;;;6244769;23;19940;-74
2022/03/23 12:11:33;;;;;;;;;;;19.20;66.00;;;;;;6244899;23;20317;-75
2022/03/23 12:14:00;;;;;;;;;;;19.30;63.90;;;;;;6245001;23;19938;-73
2022/03/23 12:16:44;;;;;;;;;;;19.30;62.80;;;;;;6244018;23;20314;-74
2022/03/23 12:19:13;;;;;;;;;;;19.20;63.50;;;;;;6245631;23;19934;-74
2022/03/23 12:21:48;;;;;;;;;;;19.20;61.90;;;;;;6245225;23;19979;-74
2022/03/23 12:24:22;;;;;;;;;;;19.10;61.80;;;;;;6245161;23;19911;-75
2022/03/23 12:26:50;;;;;;;;;;;19.10;62.80;;;;;;6218323;23;19911;-75
2022/03/23 12:29:42;;;;;;;;;;;19.40;63.30;;;;;;6245737;23;20270;-75
2022/03/23 12:32:10;;;;;;;;;;;19.50;63.70;;;;;;6238218;23;19904;-74
2022/03/23 12:34:43;;;;;;;;;;;19.30;64.80;;;;;;6218809;23;20280;-74
2022/03/23 12:37:13;;;;;;;;;;;19.40;63.40;;;;;;6245903;23;19930;-75
2022/03/23 12:39:47;;;;;;;;;;;19.20;65.30;;;;;;6246366;23;19914;-75
2022/03/23 12:42:12;;;;;;;;;;;19.30;64.90;;;;;;6245921;23;19904;-72
2022/03/23 12:45:03;;;;;;;;;;;19.10;65.80;;;;;;6245613;23;19949;-76
2022/03/23 12:47:30;;;;;;;;;;;19.00;65.90;;;;;;6227035;23;20265;-76
2022/03/23 12:58:12;;;;;;;;;;;18.80;68.90;;;;;;6244686;23;20211;-75
2022/03/23 13:00:40;;;;;;;;;;;19.00;68.20;;;;;;6244916;23;19903;-75
2022/03/23 13:03:06;;;;;;;;;;;18.90;68.00;;;;;;6217985;23;19904;-75
2022/03/23 13:05:52;;;;;;;;;;;18.90;69.30;;;;;;6245133;23;19927;-75
2022/03/23 13:08:27;;;;;;;;;;;18.70;69.90;;;;;;6192969;23;20268;-75
2022/03/23 13:10:54;;;;;;;;;;;18.70;69.90;;;;;;6245849;23;19903;-75
2022/03/23 13:13:20;;;;;;;;;;;18.80;70.30;;;;;;6218799;23;19912;-74
2022/03/23 13:15:46;;;;;;;;;;;18.80;70.60;;;;;;6245372;23;19903;-76
2022/03/23 13:18:12;;;;;;;;;;;18.90;71.20;;;;;;6246668;23;19952;-75
2022/03/23 13:20:38;;;;;;;;;;;19.00;71.50;;;;;;6246220;23;20006;-76
2022/03/23 13:23:14;;;;;;;;;;;18.90;72.50;;;;;;6247114;23;19911;-75
2022/03/23 13:25:42;;;;;;;;;;;18.90;73.80;;;;;;6245763;23;19916;-76
2022/03/23 13:28:13;;;;;;;;;;;18.90;74.00;;;;;;6246037;23;19949;-76
2022/03/23 13:30:44;;;;;;;;;;;18.90;74.70;;;;;;6246522;23;19907;-76
2022/03/23 13:33:17;;;;;;;;;;;19.10;73.60;;;;;;6245866;23;20403;-76
2022/03/23 13:35:43;;;;;;;;;;;18.90;73.30;;;;;;6246690;23;19904;-76
2022/03/23 13:38:09;;;;;;;;;;;18.90;72.80;;;;;;6245988;23;19954;-76
2022/03/23 13:43:23;;;;;;;;;;;19.00;72.20;;;;;;6246415;23;19910;-76
2022/03/23 13:45:50;;;;;;;;;;;18.90;73.50;;;;;;6246158;23;19984;-76
2022/03/23 13:48:16;;;;;;;;;;;18.50;74.90;;;;;;6246338;23;19946;-75
2022/03/23 13:50:43;;;;;;;;;;;18.60;74.90;;;;;;6245426;23;20262;-76
2022/03/23 13:53:09;;;;;;;;;;;18.30;74.10;;;;;;6245300;23;19915;-75
2022/03/23 13:55:35;;;;;;;;;;;18.50;73.90;;;;;;6245322;23;20002;-74
2022/03/23 13:58:01;;;;;;;;;;;18.60;73.00;;;;;;6245524;23;19904;-74
2022/03/23 14:00:27;;;;;;;;;;;18.70;73.00;;;;;;6218632;23;20210;-75
2022/03/23 14:02:54;;;;;;;;;;;18.60;74.00;;;;;;6245720;23;19903;-75
2022/03/23 14:05:20;;;;;;;;;;;18.30;74.80;;;;;;6245615;23;19904;-75
2022/03/23 14:07:46;;;;;;;;;;;18.30;75.70;;;;;;6247430;23;19903;-76
2022/03/23 14:10:12;;;;;;;;;;;18.30;76.20;;;;;;6247892;23;19904;-76
2022/03/23 14:12:38;;;;;;;;;;;18.30;75.10;;;;;;6247666;23;20261;-75
2022/03/23 14:15:04;;;;;;;;;;;18.20;77.30;;;;;;6247973;23;20260;-74
2022/03/23 14:17:34;;;;;;;;;;;18.20;77.20;;;;;;6248359;23;20032;-74
2022/03/23 14:20:05;;;;;;;;;;;18.00;77.60;;;;;;6248621;23;19939;-76
2022/03/23 14:22:31;;;;;;;;;;;17.80;77.90;;;;;;6248848;23;20221;-74
2022/03/23 14:24:58;;;;;;;;;;;17.80;77.40;;;;;;6248134;23;20252;-76
2022/03/23 14:27:36;;;;;;;;;;;17.70;77.10;;;;;;6248466;23;19977;-76
2022/03/23 14:30:08;;;;;;;;;;;17.90;75.60;;;;;;6248833;23;19903;-75
2022/03/23 14:32:35;;;;;;;;;;;17.90;75.10;;;;;;6248613;23;19912;-75
2022/03/23 14:35:11;;;;;;;;;;;17.70;76.60;;;;;;6248272;23;19949;-75
2022/03/23 14:37:39;;;;;;;;;;;17.50;77.80;;;;;;6247939;23;20254;-75
2022/03/23 14:40:43;;;;;;;;;;;17.70;78.60;;;;;;6248862;23;19957;-75
2022/03/23 14:43:25;;;;;;;;;;;17.70;78.50;;;;;;6097344;23;20311;-74
2022/03/23 14:46:09;;;;;;;;;;;17.80;78.10;;;;;;6099787;23;19905;-76
2022/03/23 14:48:36;;;;;;;;;;;17.90;78.50;;;;;;6096773;23;20251;-75
2022/03/23 14:51:02;;;;;;;;;;;17.90;75.60;;;;;;6096178;23;19905;-74
2022/03/23 14:53:29;;;;;;;;;;;17.90;74.80;;;;;;6098129;23;19914;-74